createdAt,value
2018-01-14T09:35:04.504Z,744
2018-01-14T09:36:06.328Z,676
2018-01-14T09:37:08.222Z,632
2018-01-14T09:38:10.181Z,600
2018-01-14T09:39:12.129Z,564
2018-01-14T09:40:14.444Z,520
2018-01-14T09:41:16.874Z,492
2018-01-14T09:42:18.768Z,460
2018-01-14T09:43:20.498Z,424
2018-01-14T09:44:22.481Z,400
2018-01-14T09:45:24.223Z,388
2018-01-14T09:46:25.938Z,388
2018-01-14T09:47:27.674Z,396
2018-01-14T09:48:29.416Z,404
2018-01-14T09:49:31.145Z,420
2018-01-14T09:50:32.880Z,452
2018-01-14T09:51:34.691Z,496
2018-01-14T09:52:36.438Z,548
2018-01-14T09:53:38.210Z,628
2018-01-14T09:54:39.928Z,724
2018-01-14T09:55:41.688Z,852
2018-01-14T09:56:43.432Z,1024
2018-01-14T09:57:45.181Z,1244
2018-01-14T09:58:47.012Z,1548
2018-01-14T09:59:48.783Z,1908
2018-01-14T10:00:50.531Z,2356
2018-01-14T10:01:52.294Z,2860
2018-01-14T10:02:54.024Z,3344
2018-01-14T10:03:55.764Z,3936
2018-01-14T10:04:57.568Z,4320
2018-01-14T10:05:59.301Z,4496
2018-01-14T10:07:01.018Z,4948
2018-01-14T10:08:02.740Z,5196
2018-01-14T10:09:04.468Z,5380
2018-01-14T10:10:06.186Z,5720
2018-01-14T10:11:07.907Z,6288
2018-01-14T10:12:09.674Z,6984
2018-01-14T10:13:11.423Z,8496
2018-01-14T10:14:13.135Z,8840
2018-01-14T10:15:14.863Z,9588
2018-01-14T10:16:16.657Z,11780
2018-01-14T10:17:18.405Z,11296
2018-01-14T10:18:20.272Z,11440
2018-01-14T10:19:21.988Z,16416
2018-01-14T10:20:23.745Z,15432
2018-01-14T10:21:25.483Z,9968
2018-01-14T10:22:27.253Z,9604
2018-01-14T10:23:28.978Z,10676
2018-01-14T10:24:30.718Z,9964
2018-01-14T10:25:32.483Z,10120
2018-01-14T10:26:34.400Z,10988
2018-01-14T10:27:36.241Z,12472
2018-01-14T10:28:37.968Z,17600
2018-01-14T10:29:39.775Z,17152
2018-01-14T10:30:41.525Z,19808
2018-01-14T10:31:43.265Z,17856
2018-01-14T10:32:45.026Z,16672
2018-01-14T10:33:46.805Z,15844
2018-01-14T10:34:48.670Z,18144
2018-01-14T10:35:50.435Z,16480
2018-01-14T10:36:52.162Z,14060
2018-01-14T10:37:53.902Z,14876
2018-01-14T10:38:55.631Z,12808
2018-01-14T10:39:57.483Z,19808
2018-01-14T10:40:59.236Z,40480
2018-01-14T10:42:01.028Z,52096
2018-01-14T10:43:02.940Z,51008
2018-01-14T10:44:04.710Z,45600
2018-01-14T10:45:06.478Z,21568
2018-01-14T10:46:08.343Z,10668
2018-01-14T10:47:10.081Z,10780
2018-01-14T10:48:11.823Z,13728
2018-01-14T10:49:13.608Z,10824
2018-01-14T10:50:15.368Z,10624
2018-01-14T10:51:17.121Z,14632
2018-01-14T10:52:18.838Z,12564
2018-01-14T10:53:20.666Z,11604
2018-01-14T10:54:22.489Z,9084
2018-01-14T10:55:24.221Z,8696
2018-01-14T10:56:26.051Z,9924
2018-01-14T10:57:27.855Z,12260
2018-01-14T10:58:29.675Z,10600
2018-01-14T10:59:31.480Z,10544
2018-01-14T11:00:33.242Z,9408
2018-01-14T11:01:35.086Z,8772
2018-01-14T11:02:36.835Z,8480
2018-01-14T11:03:38.545Z,8324
2018-01-14T11:04:40.267Z,8256
2018-01-14T11:05:41.987Z,8360
2018-01-14T11:06:43.906Z,8508
2018-01-14T11:07:45.675Z,8732
2018-01-14T11:08:47.398Z,8952
2018-01-14T11:09:49.121Z,10064
2018-01-14T11:10:50.849Z,10140
2018-01-14T11:11:52.616Z,9844
2018-01-14T11:12:54.337Z,9864
2018-01-14T11:13:56.127Z,10180
2018-01-14T11:14:57.872Z,10456
2018-01-14T11:15:59.597Z,10400
2018-01-14T11:17:01.377Z,10620
2018-01-14T11:18:03.122Z,10768
2018-01-14T11:19:04.844Z,11028
2018-01-14T11:20:06.553Z,11848
2018-01-14T11:21:08.271Z,12496
2018-01-14T11:22:09.995Z,13816
2018-01-14T11:23:11.725Z,14964
2018-01-14T11:24:13.483Z,13788
2018-01-14T11:25:15.214Z,13564
2018-01-14T11:26:16.914Z,13112
2018-01-14T11:27:18.660Z,12544
2018-01-14T11:28:20.410Z,11664
2018-01-14T11:29:22.125Z,11844
2018-01-14T11:30:23.844Z,12940
2018-01-14T11:31:25.586Z,15664
2018-01-14T11:32:27.317Z,18624
2018-01-14T11:33:29.079Z,11668
2018-01-14T11:34:30.829Z,11580
2018-01-14T11:35:32.565Z,14876
2018-01-14T11:36:34.398Z,10908
2018-01-14T11:37:36.247Z,10016
2018-01-14T11:38:38.002Z,9180
2018-01-14T11:39:39.772Z,8680
2018-01-14T11:40:41.504Z,8236
2018-01-14T11:41:43.288Z,7856
2018-01-14T11:42:45.002Z,7540
2018-01-14T11:43:46.708Z,7428
2018-01-14T11:44:48.438Z,7376
2018-01-14T11:45:50.180Z,7592
2018-01-14T11:46:51.900Z,8168
2018-01-14T11:47:53.619Z,8168
2018-01-14T11:48:55.369Z,8240
2018-01-14T11:49:57.111Z,8756
2018-01-14T11:50:58.855Z,9292
2018-01-14T11:52:00.753Z,10836
2018-01-14T11:53:02.480Z,10704
2018-01-14T11:54:04.217Z,11384
2018-01-14T11:55:05.957Z,11872
2018-01-14T11:56:07.683Z,12940
2018-01-14T11:57:09.424Z,18624
2018-01-14T11:58:11.147Z,23008
2018-01-14T11:59:12.856Z,14304
2018-01-14T12:00:14.618Z,14212
2018-01-14T12:01:16.412Z,13968
2018-01-14T12:02:18.155Z,17760
2018-01-14T12:03:19.902Z,14940
2018-01-14T12:04:21.623Z,15660
2018-01-14T12:05:23.377Z,11612
2018-01-14T12:06:25.165Z,10700
2018-01-14T12:07:26.869Z,11392
2018-01-14T12:08:28.618Z,9916
2018-01-14T12:09:30.331Z,9740
2018-01-14T12:10:32.028Z,8700
2018-01-14T12:11:33.753Z,12044
2018-01-14T12:12:35.585Z,10672
2018-01-14T12:13:37.339Z,12984
2018-01-14T12:14:39.140Z,15380
2018-01-14T12:15:40.878Z,16704
2018-01-14T12:16:42.605Z,16172
2018-01-14T12:17:44.327Z,17344
2018-01-14T12:18:46.060Z,19264
2018-01-14T12:19:47.826Z,20096
2018-01-14T12:20:49.540Z,24352
2018-01-14T12:21:51.254Z,19776
2018-01-14T12:22:52.981Z,21504
2018-01-14T12:23:54.748Z,21344
2018-01-14T12:24:56.472Z,17504
2018-01-14T12:25:58.223Z,18208
2018-01-14T12:26:59.948Z,17536
2018-01-14T12:28:01.662Z,19296
2018-01-14T12:29:03.370Z,14812
2018-01-14T12:30:05.100Z,12816
2018-01-14T12:31:06.834Z,12508
2018-01-14T12:32:08.597Z,13576
2018-01-14T12:33:10.351Z,15924
2018-01-14T12:34:12.080Z,15988
2018-01-14T12:35:13.804Z,15344
2018-01-14T12:36:15.537Z,14856
2018-01-14T12:37:17.268Z,14288
2018-01-14T12:38:19.021Z,13548
2018-01-14T12:39:20.842Z,12916
2018-01-14T12:40:22.645Z,12100
2018-01-14T12:41:24.424Z,11748
2018-01-14T12:42:26.156Z,11348
2018-01-14T12:43:27.880Z,11068
2018-01-14T12:44:29.624Z,11112
2018-01-14T12:45:31.352Z,11088
2018-01-14T12:46:33.121Z,11276
2018-01-14T12:47:34.877Z,11736
2018-01-14T12:48:36.693Z,12328
2018-01-14T12:49:38.440Z,13588
2018-01-14T12:50:40.169Z,15264
2018-01-14T12:51:41.902Z,15816
2018-01-14T12:52:43.641Z,15592
2018-01-14T12:53:45.370Z,17088
2018-01-14T12:54:47.123Z,21120
2018-01-14T12:55:48.871Z,19168
2018-01-14T12:56:50.605Z,19488
2018-01-14T12:57:52.332Z,17376
2018-01-14T12:58:54.079Z,19872
2018-01-14T12:59:55.823Z,20064
2018-01-14T13:00:57.546Z,15720
2018-01-14T13:01:59.317Z,14888
2018-01-14T13:03:01.048Z,15416
2018-01-14T13:04:02.769Z,20416
2018-01-14T13:05:04.525Z,17952
2018-01-14T13:06:06.341Z,19872
2018-01-14T13:07:08.202Z,20608
2018-01-14T13:08:10.354Z,18752
2018-01-14T13:09:12.121Z,13304
2018-01-14T13:10:13.957Z,10724
2018-01-14T13:11:15.657Z,10056
2018-01-14T13:12:17.388Z,10152
2018-01-14T13:13:19.144Z,10656
2018-01-14T13:14:20.913Z,11288
2018-01-14T13:15:22.649Z,12936
2018-01-14T13:16:24.405Z,12048
2018-01-14T13:17:26.123Z,12440
2018-01-14T13:18:27.900Z,13532
2018-01-14T13:19:29.634Z,14508
2018-01-14T13:20:31.401Z,16704
2018-01-14T13:21:33.163Z,19232
2018-01-14T13:22:34.924Z,19968
2018-01-14T13:23:36.678Z,18208
2018-01-14T13:24:39.098Z,16360
2018-01-14T13:25:41.074Z,14576
2018-01-14T13:26:42.842Z,14292
2018-01-14T13:27:44.550Z,14404
2018-01-14T13:28:46.312Z,12468
2018-01-14T13:29:48.048Z,11680
2018-01-14T13:30:49.820Z,11188
2018-01-14T13:31:51.587Z,10988
2018-01-14T13:32:53.351Z,9784
2018-01-14T13:33:55.085Z,9408
2018-01-14T13:34:56.814Z,9064
2018-01-14T13:35:58.545Z,8636
2018-01-14T13:37:00.308Z,8320
2018-01-14T13:38:02.303Z,7972
2018-01-14T13:39:04.030Z,7628
2018-01-14T13:40:05.781Z,7148
2018-01-14T13:41:07.524Z,6680
2018-01-14T13:42:09.257Z,6392
2018-01-14T13:43:11.024Z,6064
2018-01-14T13:44:12.788Z,5860
2018-01-14T13:45:14.562Z,5672
2018-01-14T13:46:16.349Z,5504
2018-01-14T13:47:18.133Z,5404
2018-01-14T13:48:19.913Z,5380
2018-01-14T13:49:21.719Z,5544
2018-01-14T13:50:23.465Z,5720
2018-01-14T13:51:25.216Z,5980
2018-01-14T13:52:27.064Z,6244
2018-01-14T13:53:28.952Z,6652
2018-01-14T13:54:30.685Z,7056
2018-01-14T13:55:32.418Z,7376
2018-01-14T13:56:34.258Z,7640
2018-01-14T13:57:35.991Z,7968
2018-01-14T13:58:37.760Z,8360
2018-01-14T13:59:39.521Z,9584
2018-01-14T14:00:41.250Z,9996
2018-01-14T14:01:43.004Z,7424
2018-01-14T14:02:44.734Z,6904
2018-01-14T14:03:46.456Z,6960
2018-01-14T14:04:48.193Z,7536
2018-01-14T14:05:49.925Z,8204
2018-01-14T14:06:51.729Z,9388
2018-01-14T14:07:53.500Z,13016
2018-01-14T14:08:55.214Z,24096
2018-01-14T14:09:56.982Z,40192
2018-01-14T14:10:58.712Z,24192
2018-01-14T14:12:00.455Z,12232
2018-01-14T14:13:02.218Z,11272
2018-01-14T14:14:03.953Z,10852
2018-01-14T14:15:05.723Z,10324
2018-01-14T14:16:07.476Z,9988
2018-01-14T14:17:09.203Z,10280
2018-01-14T14:18:10.976Z,11560
2018-01-14T14:19:12.774Z,20896
2018-01-14T14:20:14.568Z,32864
2018-01-14T14:21:16.315Z,22720
2018-01-14T14:22:18.049Z,14672
2018-01-14T14:23:19.798Z,7604
2018-01-14T14:24:21.562Z,6880
2018-01-14T14:25:23.297Z,6644
2018-01-14T14:26:25.119Z,6384
2018-01-14T14:27:26.910Z,5996
2018-01-14T14:28:28.682Z,6012
2018-01-14T14:29:31.337Z,5800
2018-01-14T14:30:33.082Z,5896
2018-01-14T14:31:34.844Z,6468
2018-01-14T14:32:36.628Z,6836
2018-01-14T14:33:38.477Z,6976
2018-01-14T14:34:40.270Z,7348
2018-01-14T14:35:42.042Z,6856
2018-01-14T14:36:43.815Z,6660
2018-01-14T14:37:45.564Z,6620
2018-01-14T14:38:47.368Z,6732
2018-01-14T14:39:49.091Z,6952
2018-01-14T14:40:50.811Z,7044
2018-01-14T14:41:52.598Z,7188
2018-01-14T14:42:54.278Z,7228
2018-01-14T14:43:55.997Z,7112
2018-01-14T14:44:57.761Z,6988
2018-01-14T14:45:59.477Z,6828
2018-01-14T14:47:01.206Z,6576
2018-01-14T14:48:03.017Z,6532
2018-01-14T14:49:04.753Z,6380
2018-01-14T14:50:06.580Z,6076
2018-01-14T14:51:08.348Z,6016
2018-01-14T14:52:10.094Z,5880
2018-01-14T14:53:11.908Z,5712
2018-01-14T14:54:13.763Z,5508
2018-01-14T14:55:15.640Z,5232
2018-01-14T14:56:17.502Z,4964
2018-01-14T14:57:19.363Z,4892
2018-01-14T14:58:21.099Z,4904
2018-01-14T14:59:22.906Z,4924
2018-01-14T15:00:24.682Z,5128
2018-01-14T15:01:27.946Z,5600
2018-01-14T15:02:29.137Z,5892
2018-01-14T15:03:30.908Z,5924
2018-01-14T15:04:32.659Z,5880
2018-01-14T15:05:34.484Z,5864
2018-01-14T15:06:36.232Z,5776
2018-01-14T15:07:38.051Z,5768
2018-01-14T15:08:39.778Z,5544
2018-01-14T15:09:41.538Z,5500
2018-01-14T15:10:43.313Z,5512
2018-01-14T15:11:45.078Z,5700
2018-01-14T15:12:46.827Z,5756
2018-01-14T15:13:48.765Z,5820
2018-01-14T15:14:50.529Z,5700
2018-01-14T15:15:52.262Z,5660
2018-01-14T15:16:54.112Z,5792
2018-01-14T15:17:55.875Z,5880
2018-01-14T15:18:57.619Z,6036
2018-01-14T15:19:59.350Z,5820
2018-01-14T15:21:01.084Z,5672
2018-01-14T15:22:02.849Z,5748
2018-01-14T15:23:04.569Z,5768
2018-01-14T15:24:06.322Z,5812
2018-01-14T15:25:08.091Z,6056
2018-01-14T15:26:09.846Z,6152
2018-01-14T15:27:11.645Z,6224
2018-01-14T15:28:13.448Z,6308
2018-01-14T15:29:15.208Z,6416
2018-01-14T15:30:16.979Z,6484
2018-01-14T15:31:18.766Z,6420
2018-01-14T15:32:20.789Z,6152
2018-01-14T15:33:22.781Z,5980
2018-01-14T15:34:24.528Z,5948
2018-01-14T15:35:26.277Z,5864
2018-01-14T15:36:30.105Z,5792
2018-01-14T15:37:31.301Z,5636
2018-01-14T15:38:33.072Z,5624
2018-01-14T15:39:35.788Z,5636
2018-01-14T15:40:44.967Z,5544
2018-01-14T15:41:46.774Z,5344
2018-01-14T15:42:48.612Z,5076
2018-01-14T15:43:50.592Z,4812
2018-01-14T15:44:52.405Z,4636
2018-01-14T15:45:54.183Z,4548
2018-01-14T15:46:55.967Z,4288
2018-01-14T15:47:57.822Z,4048
2018-01-14T15:48:59.672Z,3904
2018-01-14T15:50:01.444Z,3620
2018-01-14T15:51:03.272Z,3384
2018-01-14T15:52:05.083Z,3336
2018-01-14T15:53:07.078Z,3332
2018-01-14T15:54:08.917Z,3428
2018-01-14T15:55:10.829Z,3524
2018-01-14T15:56:12.627Z,3608
2018-01-14T15:57:14.379Z,3712
2018-01-14T15:58:16.222Z,3904
2018-01-14T15:59:18.040Z,4164
2018-01-14T16:00:19.924Z,4312
2018-01-14T16:01:21.763Z,4180
2018-01-14T16:02:23.565Z,3892
2018-01-14T16:03:25.478Z,3488
2018-01-14T16:04:27.310Z,3128
2018-01-14T16:05:29.106Z,2872
2018-01-14T16:06:31.043Z,2736
2018-01-14T16:07:33.976Z,2680
2018-01-14T16:08:34.955Z,2668
2018-01-14T16:09:37.466Z,2704
2018-01-14T16:10:39.488Z,2796
2018-01-14T16:11:41.306Z,2908
2018-01-14T16:12:43.064Z,3060
2018-01-14T16:13:44.926Z,3292
2018-01-14T16:14:46.686Z,3684
2018-01-14T16:15:48.443Z,4020
2018-01-14T16:16:50.317Z,3776
2018-01-14T16:17:52.106Z,3824
2018-01-14T16:18:53.904Z,3716
2018-01-14T16:19:55.713Z,3532
2018-01-14T16:20:57.995Z,3272
2018-01-14T16:21:59.634Z,3036
2018-01-14T16:23:01.463Z,2888
2018-01-14T16:24:03.303Z,2816
2018-01-14T16:25:05.068Z,2828
2018-01-14T16:26:06.824Z,2792
2018-01-14T16:27:08.583Z,2984
2018-01-14T16:28:10.327Z,2940
2018-01-14T16:29:12.104Z,2552
2018-01-14T16:30:13.885Z,2812
2018-01-14T16:31:18.264Z,2704
2018-01-14T16:32:20.102Z,2600
2018-01-14T16:33:21.893Z,2516
2018-01-14T16:34:23.665Z,2456
2018-01-14T16:35:25.466Z,2400
2018-01-14T16:36:27.221Z,2344
2018-01-14T16:37:29.178Z,2308
2018-01-14T16:38:30.965Z,2260
2018-01-14T16:39:32.730Z,2216
2018-01-14T16:40:34.581Z,2184
2018-01-14T16:41:36.421Z,2148
2018-01-14T16:42:38.239Z,2128
2018-01-14T16:43:40.136Z,2092
2018-01-14T16:44:41.923Z,2040
2018-01-14T16:45:43.759Z,1988
2018-01-14T16:46:45.655Z,1944
2018-01-14T16:47:47.511Z,1892
2018-01-14T16:48:49.441Z,1844
2018-01-14T16:49:51.273Z,1796
2018-01-14T16:50:53.110Z,1752
2018-01-14T16:51:54.924Z,1688
2018-01-14T16:52:56.798Z,1636
2018-01-14T16:53:58.630Z,1588
2018-01-14T16:55:00.590Z,1544
2018-01-14T16:56:02.476Z,1508
2018-01-14T16:57:04.400Z,1468
2018-01-14T16:58:06.269Z,1428
2018-01-14T16:59:08.073Z,1388
2018-01-14T17:00:09.946Z,1352
2018-01-14T17:01:11.779Z,1312
2018-01-14T17:02:13.650Z,1272
2018-01-14T17:03:15.527Z,1232
2018-01-14T17:04:17.403Z,1188
2018-01-14T17:05:19.405Z,1148
2018-01-14T17:06:21.280Z,1104
2018-01-14T17:07:23.114Z,1068
2018-01-14T17:08:25.043Z,1012
2018-01-14T17:09:26.946Z,984
2018-01-14T17:10:28.803Z,916
2018-01-14T17:11:30.512Z,852
2018-01-14T17:12:33.126Z,788
2018-01-14T17:13:34.910Z,720
2018-01-14T17:14:36.675Z,676
2018-01-14T17:15:38.429Z,636
2018-01-14T17:16:40.305Z,600
2018-01-14T17:17:41.957Z,564
2018-01-14T17:18:45.162Z,532
2018-01-14T17:19:46.931Z,504
2018-01-14T17:20:48.719Z,472
2018-01-14T17:21:50.632Z,444
2018-01-14T17:22:52.492Z,412
2018-01-14T17:23:54.241Z,384
2018-01-14T17:24:56.107Z,356
2018-01-14T17:25:57.875Z,328
2018-01-14T17:26:59.810Z,304
2018-01-14T17:28:01.573Z,276
2018-01-14T17:29:03.431Z,252
2018-01-14T17:30:05.342Z,232
2018-01-14T17:31:07.189Z,212
2018-01-14T17:32:09.046Z,192
2018-01-14T17:33:10.866Z,172
2018-01-14T17:34:12.790Z,156
2018-01-14T17:35:14.685Z,140
2018-01-14T17:36:16.582Z,124
2018-01-14T17:37:18.449Z,108
2018-01-14T17:38:20.283Z,96
2018-01-14T17:39:22.053Z,88
2018-01-14T17:40:23.930Z,76
2018-01-14T17:41:25.691Z,64
2018-01-14T17:42:27.434Z,56
2018-01-14T17:43:29.182Z,48
2018-01-14T17:44:30.941Z,40
2018-01-14T17:45:32.732Z,32
2018-01-14T17:46:34.497Z,28
2018-01-14T17:47:36.347Z,24
2018-01-14T17:48:38.795Z,20
2018-01-14T17:49:40.656Z,16
2018-01-14T17:50:42.569Z,12
2018-01-14T17:51:44.402Z,8
2018-01-14T17:52:46.300Z,8
2018-01-14T17:53:48.141Z,8
2018-01-14T17:54:50.032Z,4
2018-01-14T17:55:52.044Z,4
2018-01-14T17:56:53.803Z,4
2018-01-14T17:57:55.646Z,4
2018-01-14T17:58:57.983Z,4
2018-01-14T18:00:00.014Z,0
2018-01-14T18:01:01.675Z,4
2018-01-14T18:02:03.443Z,4
2018-01-14T18:03:05.344Z,0
2018-01-14T18:04:07.259Z,0
2018-01-14T18:05:09.092Z,0
2018-01-14T18:06:10.895Z,0
2018-01-14T18:07:13.054Z,0
2018-01-14T18:08:14.989Z,0
2018-01-14T18:09:16.767Z,0
2018-01-14T18:10:18.960Z,0
2018-01-14T18:11:21.245Z,0
2018-01-14T18:12:23.284Z,0
2018-01-14T18:13:25.285Z,0
2018-01-14T18:14:27.106Z,0
2018-01-14T18:15:29.134Z,0
2018-01-14T18:16:31.495Z,0
2018-01-14T18:17:33.869Z,0
2018-01-14T18:18:35.667Z,0
2018-01-14T18:19:37.546Z,0
2018-01-14T18:20:39.367Z,0
2018-01-14T18:21:41.154Z,0
2018-01-14T18:22:43.062Z,0
2018-01-14T18:23:46.207Z,0
2018-01-14T18:24:47.928Z,0
2018-01-14T18:25:49.891Z,0
2018-01-14T18:26:51.880Z,0
2018-01-14T18:27:53.965Z,0
2018-01-14T18:28:55.951Z,0
2018-01-14T18:29:57.992Z,0
2018-01-14T18:31:01.094Z,0
2018-01-14T18:32:02.896Z,0
2018-01-14T18:33:05.112Z,0
2018-01-14T18:34:06.884Z,0
2018-01-14T18:35:08.767Z,0
2018-01-14T18:36:10.534Z,0
2018-01-14T18:37:12.447Z,0
2018-01-14T18:38:14.444Z,0
2018-01-14T18:39:16.223Z,0
2018-01-14T18:40:18.395Z,0
2018-01-14T18:41:21.472Z,0
2018-01-14T18:42:23.193Z,0
2018-01-14T18:43:25.153Z,0
2018-01-14T18:44:27.049Z,0
2018-01-14T18:45:28.917Z,0
2018-01-14T18:46:31.044Z,0
2018-01-14T18:47:32.997Z,0
2018-01-14T18:48:34.940Z,0
2018-01-14T18:49:36.821Z,0
2018-01-14T18:50:38.671Z,0
2018-01-14T18:51:40.785Z,0
2018-01-14T18:52:42.537Z,0
2018-01-14T18:53:44.916Z,0
2018-01-14T18:54:46.851Z,0
2018-01-14T18:55:48.816Z,0
2018-01-14T18:56:50.599Z,0
2018-01-14T18:57:52.509Z,0
2018-01-14T18:58:54.387Z,0
2018-01-14T19:00:01.745Z,0
2018-01-14T19:01:03.341Z,0
2018-01-14T19:02:05.150Z,0
2018-01-14T19:03:07.008Z,0
2018-01-14T19:04:08.801Z,0
2018-01-14T19:05:10.633Z,0
2018-01-14T19:06:12.539Z,0
2018-01-14T19:07:14.340Z,0
2018-01-14T19:08:16.179Z,0
2018-01-14T19:09:17.962Z,0
2018-01-14T19:10:20.108Z,0
2018-01-14T19:11:22.425Z,0
2018-01-14T19:13:27.346Z,0
2018-01-14T19:14:29.144Z,0
2018-01-14T19:15:30.937Z,0
2018-01-14T19:16:35.857Z,0
2018-01-14T19:17:47.052Z,0
2018-01-14T19:18:48.838Z,0
2018-01-14T19:19:50.682Z,0
2018-01-14T19:20:52.484Z,0
2018-01-14T19:21:54.284Z,0
2018-01-14T19:22:56.033Z,0
2018-01-14T19:23:57.990Z,0
2018-01-14T19:24:59.632Z,0
2018-01-14T19:26:01.468Z,0
2018-01-14T19:27:03.235Z,0
2018-01-14T19:28:05.138Z,0
2018-01-14T19:29:06.982Z,0
2018-01-14T19:30:08.872Z,0
2018-01-14T19:31:10.809Z,0
2018-01-14T19:32:12.831Z,0
2018-01-14T19:33:14.893Z,0
2018-01-14T19:34:18.825Z,0
2018-01-14T19:35:20.784Z,0
2018-01-14T19:36:22.771Z,0
2018-01-14T19:37:24.859Z,0
2018-01-14T19:38:26.789Z,0
2018-01-14T19:39:28.719Z,0
2018-01-14T19:40:30.672Z,0
2018-01-14T19:41:32.649Z,0
2018-01-14T19:42:34.493Z,0
2018-01-14T19:43:36.639Z,0
2018-01-14T19:44:40.299Z,0
2018-01-14T19:45:41.929Z,0
2018-01-14T19:46:58.054Z,0
2018-01-14T19:48:00.054Z,0
2018-01-14T19:49:01.964Z,0
2018-01-14T19:50:03.889Z,0
2018-01-14T19:51:05.820Z,0
2018-01-14T19:52:07.637Z,0
2018-01-14T19:53:09.508Z,0
2018-01-14T19:54:11.625Z,0
2018-01-14T19:54:40.815Z,0
2018-01-14T19:55:42.575Z,0
2018-01-14T19:56:44.321Z,0
2018-01-14T19:57:46.151Z,0
2018-01-14T19:58:47.883Z,0
2018-01-14T19:59:49.702Z,0
2018-01-14T20:00:51.580Z,0
2018-01-14T20:01:53.356Z,0
2018-01-14T20:02:55.127Z,0
2018-01-14T20:03:57.051Z,0
2018-01-14T20:04:58.807Z,0
2018-01-14T20:06:00.683Z,0
2018-01-14T20:07:02.897Z,0
2018-01-14T20:08:04.889Z,0
2018-01-14T20:09:07.092Z,0
2018-01-14T20:10:09.103Z,0
2018-01-14T20:11:11.683Z,0
2018-01-14T20:12:14.060Z,0
2018-01-14T20:13:16.093Z,0
2018-01-14T20:14:18.931Z,0
2018-01-14T20:15:20.713Z,0
2018-01-14T20:16:22.575Z,0
2018-01-14T20:17:24.453Z,0
2018-01-14T20:18:26.360Z,0
2018-01-14T20:19:28.144Z,0
2018-01-14T20:20:30.026Z,0
2018-01-14T20:21:31.902Z,0
2018-01-14T20:22:33.673Z,0
2018-01-14T20:23:35.545Z,0
2018-01-14T20:24:37.402Z,0
2018-01-14T20:25:39.227Z,0
2018-01-14T20:26:41.027Z,0
2018-01-14T20:27:42.898Z,0
2018-01-14T20:28:44.689Z,0
2018-01-14T20:29:46.505Z,0
2018-01-14T20:30:48.352Z,0
2018-01-14T20:31:50.234Z,0
2018-01-14T20:32:52.052Z,0
2018-01-14T20:33:53.808Z,0
2018-01-14T20:34:55.552Z,0
2018-01-14T20:35:57.381Z,0
2018-01-14T20:36:59.174Z,0
2018-01-14T20:38:01.004Z,0
2018-01-14T20:39:02.795Z,0
2018-01-14T20:40:04.652Z,0
2018-01-14T20:41:06.628Z,0
2018-01-14T20:42:08.379Z,0
2018-01-14T20:43:10.228Z,0
2018-01-14T20:44:12.072Z,0
2018-01-14T20:45:13.929Z,0
2018-01-14T20:46:15.723Z,0
2018-01-14T20:47:17.659Z,0
2018-01-14T20:48:19.453Z,0
2018-01-14T20:49:21.339Z,0
2018-01-14T20:50:23.179Z,0
2018-01-14T20:51:24.976Z,0
2018-01-14T20:52:26.868Z,0
2018-01-14T20:53:28.765Z,0
2018-01-14T20:54:31.046Z,0
2018-01-14T20:55:35.725Z,0
2018-01-14T20:56:37.434Z,0
2018-01-14T20:57:39.313Z,0
2018-01-14T20:58:41.519Z,0
2018-01-14T20:59:43.352Z,0
2018-01-14T21:00:45.276Z,0
2018-01-14T21:01:47.207Z,0
2018-01-14T21:02:49.095Z,0
2018-01-14T21:03:52.288Z,0
2018-01-14T21:04:54.236Z,0
2018-01-14T21:05:57.003Z,0
2018-01-14T21:06:59.051Z,0
2018-01-14T21:08:00.852Z,0
2018-01-14T21:09:02.868Z,0
2018-01-14T21:10:05.520Z,0
2018-01-14T21:11:07.348Z,0
2018-01-14T21:12:09.785Z,0
2018-01-14T21:13:11.735Z,0
2018-01-14T21:14:13.483Z,0
2018-01-14T21:15:15.293Z,0
2018-01-14T21:16:17.116Z,0
2018-01-14T21:17:18.947Z,0
2018-01-14T21:18:20.746Z,0
2018-01-14T21:19:22.478Z,0
2018-01-14T21:20:24.327Z,0
2018-01-14T21:21:26.193Z,0
2018-01-14T21:22:27.929Z,0
2018-01-14T21:23:29.682Z,0
2018-01-14T21:24:31.550Z,0
2018-01-14T21:25:33.584Z,0
2018-01-14T21:26:35.403Z,0
2018-01-14T21:27:37.270Z,0
2018-01-14T21:28:39.128Z,0
2018-01-14T21:29:40.997Z,0
2018-01-14T21:30:42.852Z,0
2018-01-14T21:31:44.634Z,0
2018-01-14T21:32:46.784Z,0
2018-01-14T21:33:49.047Z,0
2018-01-14T21:34:50.956Z,0
2018-01-14T21:35:52.806Z,0
2018-01-14T21:36:54.656Z,0
2018-01-14T21:37:56.511Z,0
2018-01-14T21:38:58.406Z,0
2018-01-14T21:40:00.206Z,0
2018-01-14T21:41:02.010Z,0
2018-01-14T21:42:03.864Z,0
2018-01-14T21:43:05.629Z,0
2018-01-14T21:44:07.537Z,0
2018-01-14T21:45:09.416Z,0
2018-01-14T21:46:11.331Z,0
2018-01-14T21:47:13.184Z,0
2018-01-14T21:48:15.078Z,0
2018-01-14T21:49:16.970Z,0
2018-01-14T21:50:18.755Z,0
2018-01-14T21:51:20.574Z,0
2018-01-14T21:52:22.479Z,0
2018-01-14T21:53:24.343Z,0
2018-01-14T21:54:26.181Z,0
2018-01-14T21:55:28.087Z,0
2018-01-14T21:56:30.001Z,0
2018-01-14T21:57:31.904Z,0
2018-01-14T21:58:33.744Z,0
2018-01-14T21:59:35.520Z,0
2018-01-14T22:00:37.308Z,0
2018-01-14T22:01:39.128Z,0
2018-01-14T22:02:40.956Z,0
2018-01-14T22:03:42.836Z,0
2018-01-14T22:04:44.723Z,0
2018-01-14T22:05:46.563Z,0
2018-01-14T22:06:48.426Z,0
2018-01-14T22:07:50.184Z,0
2018-01-14T22:08:52.596Z,0
2018-01-14T22:09:54.643Z,0
2018-01-14T22:10:56.535Z,0
2018-01-14T22:11:58.767Z,0
2018-01-14T22:13:01.465Z,0
2018-01-14T22:14:03.465Z,0
2018-01-14T22:15:05.856Z,0
2018-01-14T22:16:07.728Z,0
2018-01-14T22:17:09.631Z,0
2018-01-14T22:18:11.611Z,0
2018-01-14T22:19:13.848Z,0
2018-01-14T22:20:16.150Z,0
2018-01-14T22:21:18.262Z,0
2018-01-14T22:22:20.092Z,0
2018-01-14T22:23:22.150Z,0
2018-01-14T22:24:24.026Z,0
2018-01-14T22:25:25.836Z,0
2018-01-14T22:26:27.683Z,0
2018-01-14T22:27:29.504Z,0
2018-01-14T22:28:31.312Z,0
2018-01-14T22:29:33.272Z,0
2018-01-14T22:30:35.004Z,0
2018-01-14T22:31:36.791Z,0
2018-01-14T22:32:38.513Z,0
2018-01-14T22:33:40.469Z,0
2018-01-14T22:34:42.249Z,0
2018-01-14T22:35:44.271Z,0
2018-01-14T22:36:46.063Z,0
2018-01-14T22:37:47.885Z,0
2018-01-14T22:38:49.742Z,0
2018-01-14T22:39:51.480Z,0
2018-01-14T22:40:53.259Z,0
2018-01-14T22:41:55.091Z,0
2018-01-14T22:42:57.082Z,0
2018-01-14T22:43:58.854Z,0
2018-01-14T22:45:00.683Z,0
2018-01-14T22:46:02.394Z,0
2018-01-14T22:47:04.202Z,0
2018-01-14T22:48:05.998Z,0
2018-01-14T22:49:08.493Z,0
2018-01-14T22:50:10.404Z,0
2018-01-14T22:51:12.216Z,0
2018-01-14T22:52:13.958Z,0
2018-01-14T22:53:15.756Z,0
2018-01-14T22:54:17.515Z,0
2018-01-14T22:55:19.300Z,0
2018-01-14T22:56:21.021Z,0
2018-01-14T22:57:22.791Z,0
2018-01-14T22:58:24.520Z,0
2018-01-14T22:59:26.290Z,0
2018-01-14T23:00:28.071Z,0
2018-01-14T23:01:29.828Z,0
2018-01-14T23:02:31.680Z,0
2018-01-14T23:03:33.410Z,0
2018-01-14T23:04:35.184Z,0
2018-01-14T23:05:36.947Z,0
2018-01-14T23:06:38.665Z,0
2018-01-14T23:07:40.401Z,0
2018-01-14T23:08:42.115Z,0
2018-01-14T23:09:43.894Z,0
2018-01-14T23:10:45.655Z,0
2018-01-14T23:11:47.380Z,0
2018-01-14T23:12:49.107Z,0
2018-01-14T23:13:50.869Z,0
2018-01-14T23:14:52.615Z,0
2018-01-14T23:15:54.399Z,0
2018-01-14T23:16:56.126Z,0
2018-01-14T23:17:57.876Z,0
2018-01-14T23:18:59.683Z,0
2018-01-14T23:20:01.531Z,0
2018-01-14T23:21:03.309Z,0
2018-01-14T23:22:05.188Z,0
2018-01-14T23:23:06.984Z,0
2018-01-14T23:24:08.761Z,0
2018-01-14T23:25:10.508Z,0
2018-01-14T23:26:12.184Z,0
2018-01-14T23:27:13.947Z,0
2018-01-14T23:28:15.706Z,0
2018-01-14T23:29:17.474Z,0
2018-01-14T23:30:19.236Z,0
2018-01-14T23:31:21.076Z,0
2018-01-14T23:32:22.909Z,0
2018-01-14T23:33:24.645Z,0
2018-01-14T23:34:26.473Z,0
2018-01-14T23:35:28.256Z,0
2018-01-14T23:36:29.978Z,0
2018-01-14T23:37:31.713Z,0
2018-01-14T23:38:33.468Z,0
2018-01-14T23:39:35.243Z,0
2018-01-14T23:40:36.945Z,0
2018-01-14T23:41:38.773Z,0
2018-01-14T23:42:40.627Z,0
2018-01-14T23:43:42.352Z,0
2018-01-14T23:44:44.203Z,0
2018-01-14T23:45:46.008Z,0
2018-01-14T23:46:47.780Z,0
2018-01-14T23:47:49.609Z,0
2018-01-14T23:48:51.456Z,0
2018-01-14T23:49:53.378Z,0
2018-01-14T23:50:55.282Z,0
2018-01-14T23:51:57.241Z,0